Brainerd Lakes Regional Airport
KBRD : now visible

Airfield :











YOU CAN JOIN US ON...

 
LOGIN :

Register | Disclaimer

   EN    FR    IT 

 









Legend :    VFR   Marginal VFR   IFR   Intensive IFR   Very Intensive IFR
Visi :
Ceiling :
>= 8 km
>= 3000ft
5 to 8 km
1000 to 3000 ft
1500m to 5 km
500 to 1000 ft
800 to 1500m
200 to 500 ft
< 800m
< 200 ft
Symbols :   Thunderstorms  Fog  Heavy snow  Heavy precipitations  Wind > 20 kt






- Airport Elevation : 1232 ft


KBRD - Brainerd Lakes Regional

CURRENT METAR :
  • 261553Z AUTO 34003KT 8SM OVC060 M10/M15 A3034 RMK AO2 SLP299 T11001150

EXPIRED METARs :
  • 261453Z AUTO 34003KT 7SM OVC060 M12/M16 A3035 RMK AO2 SLP303 T11171161 58000
  • 261353Z AUTO 31005KT 7SM OVC060 M13/M17 A3036 RMK AO2 SLP305 T11281167

TAF KBRD
Valid from the 26 at 12:00 until the 27 at 12:00 UTC


261138Z 2612/2712 VRB03KT P6SM BKN060
FM262100 33005KT P6SM VCSH BKN025
FM270400 00000KT P6SM BKN035



MET'MAP, your aeronautical weather chart ! - Copyright ORBIFLY December 2007 - Disclaimer

ORBIFLY MET'MAP TEAM :

Programming & Development : Alexandra Zaïnal
Concept & original design : Baudouin d'Aumeries
Assistance for programming : Marc-Olivier Méhu
Technical & hardware support : Manuel Goepfert

Contact : metmap@orbifly.com




SOURCES & CREDITS :

   NOAA       Earth
Advisory